createdAt,value
2017-12-23T00:00:15.945Z,1027.50
2017-12-23T00:01:15.967Z,1027.48
2017-12-23T00:02:16.089Z,1027.46
2017-12-23T00:03:16.341Z,1027.48
2017-12-23T00:04:37.221Z,1027.50
2017-12-23T00:05:16.164Z,1027.55
2017-12-23T00:06:16.131Z,1027.50
2017-12-23T00:07:16.136Z,1027.46
2017-12-23T00:08:16.242Z,1027.41
2017-12-23T00:09:16.187Z,1027.43
2017-12-23T00:10:37.489Z,1027.34
2017-12-23T00:11:16.241Z,1027.32
2017-12-23T00:12:16.191Z,1027.26
2017-12-23T00:13:16.218Z,1027.24
2017-12-23T00:14:16.232Z,1027.25
2017-12-23T00:15:16.253Z,1027.21
2017-12-23T00:16:37.262Z,1027.21
2017-12-23T00:17:16.279Z,1027.16
2017-12-23T00:18:16.291Z,1027.12
2017-12-23T00:19:16.315Z,1027.18
2017-12-23T00:20:16.328Z,1027.15
2017-12-23T00:21:16.391Z,1027.13
2017-12-23T00:22:37.403Z,1027.19
2017-12-23T00:23:16.418Z,1027.13
2017-12-23T00:24:16.424Z,1027.05
2017-12-23T00:25:16.437Z,1027.05
2017-12-23T00:26:16.465Z,1027.03
2017-12-23T00:27:16.489Z,1026.98
2017-12-23T00:28:37.512Z,1027.00
2017-12-23T00:29:16.526Z,1026.96
2017-12-23T00:30:16.541Z,1026.96
2017-12-23T00:31:16.570Z,1026.91
2017-12-23T00:32:16.595Z,1026.89
2017-12-23T00:33:16.616Z,1026.82
2017-12-23T00:34:37.668Z,1026.78
2017-12-23T00:35:16.651Z,1026.81
2017-12-23T00:36:16.701Z,1026.84
2017-12-23T00:37:16.694Z,1026.81
2017-12-23T00:38:16.715Z,1026.80
2017-12-23T00:39:16.737Z,1026.77
2017-12-23T00:40:37.770Z,1026.79
2017-12-23T00:41:16.787Z,1026.80
2017-12-23T00:42:16.814Z,1026.79
2017-12-23T00:43:16.833Z,1026.79
2017-12-23T00:44:16.854Z,1026.75
2017-12-23T00:45:16.864Z,1026.73
2017-12-23T00:46:37.899Z,1026.69
2017-12-23T00:47:16.907Z,1026.77
2017-12-23T00:48:16.939Z,1026.78
2017-12-23T00:49:16.965Z,1026.71
2017-12-23T00:50:17.002Z,1026.76
2017-12-23T00:51:16.991Z,1026.79
2017-12-23T00:52:38.043Z,1026.80
2017-12-23T00:53:17.035Z,1026.88
2017-12-23T00:54:17.058Z,1026.93
2017-12-23T00:55:17.077Z,1026.95
2017-12-23T00:56:17.101Z,1026.81
2017-12-23T00:57:17.117Z,1026.84
2017-12-23T00:58:38.154Z,1026.73
2017-12-23T00:59:17.171Z,1026.63
2017-12-23T01:00:17.186Z,1026.61
2017-12-23T01:01:17.240Z,1026.54
2017-12-23T01:02:17.230Z,1026.50
2017-12-23T01:03:17.277Z,1026.52
2017-12-23T01:04:38.285Z,1026.53
2017-12-23T01:05:17.288Z,1026.47
2017-12-23T01:06:17.312Z,1026.45
2017-12-23T01:07:17.345Z,1026.38
2017-12-23T01:08:17.357Z,1026.31
2017-12-23T01:09:17.387Z,1026.29
2017-12-23T01:10:38.418Z,1026.24
2017-12-23T01:11:17.418Z,1026.25
2017-12-23T01:12:17.480Z,1026.25
2017-12-23T01:13:17.453Z,1026.33
2017-12-23T01:14:18.247Z,1026.32
2017-12-23T01:15:17.501Z,1026.38
2017-12-23T01:16:38.537Z,1026.39
2017-12-23T01:17:17.554Z,1026.41
2017-12-23T01:18:17.561Z,1026.37
2017-12-23T01:19:17.585Z,1026.40
2017-12-23T01:20:17.597Z,1026.40
2017-12-23T01:21:17.638Z,1026.43
2017-12-23T01:22:38.689Z,1026.43
2017-12-23T01:23:17.663Z,1026.38
2017-12-23T01:24:17.693Z,1026.42
2017-12-23T01:25:17.716Z,1026.37
2017-12-23T01:26:17.742Z,1026.35
2017-12-23T01:27:17.750Z,1026.38
2017-12-23T01:28:38.789Z,1026.26
2017-12-23T01:29:17.797Z,1026.22
2017-12-23T01:30:17.813Z,1026.18
2017-12-23T01:31:17.865Z,1026.21
2017-12-23T01:32:17.859Z,1026.16
2017-12-23T01:33:17.892Z,1026.13
2017-12-23T01:34:38.918Z,1026.15
2017-12-23T01:35:17.919Z,1026.14
2017-12-23T01:36:17.954Z,1026.13
2017-12-23T01:37:17.966Z,1026.03
2017-12-23T01:38:17.984Z,1026.03
2017-12-23T01:39:18.018Z,1026.00
2017-12-23T01:40:39.047Z,1025.98
2017-12-23T01:41:18.051Z,1026.00
2017-12-23T01:42:18.070Z,1025.97
2017-12-23T01:43:18.087Z,1025.95
2017-12-23T01:44:18.120Z,1026.01
2017-12-23T01:45:18.127Z,1026.01
2017-12-23T01:46:39.175Z,1025.98
2017-12-23T01:47:18.184Z,1025.98
2017-12-23T01:48:18.196Z,1026.00
2017-12-23T01:49:18.221Z,1026.10
2017-12-23T01:50:18.236Z,1026.07
2017-12-23T01:51:18.262Z,1026.07
2017-12-23T01:52:39.323Z,1026.05
2017-12-23T01:53:18.303Z,1026.08
2017-12-23T01:54:18.326Z,1026.02
2017-12-23T01:55:18.348Z,1026.06
2017-12-23T01:56:18.364Z,1026.02
2017-12-23T01:57:18.383Z,1026.01
2017-12-23T01:58:39.427Z,1026.00
2017-12-23T01:59:18.429Z,1026.01
2017-12-23T02:00:18.442Z,1025.96
2017-12-23T02:01:18.480Z,1025.95
2017-12-23T02:02:18.493Z,1025.94
2017-12-23T02:03:18.514Z,1025.92
2017-12-23T02:04:39.559Z,1025.89
2017-12-23T02:05:18.555Z,1025.86
2017-12-23T02:06:18.570Z,1025.81
2017-12-23T02:07:18.592Z,1025.75
2017-12-23T02:08:18.609Z,1025.74
2017-12-23T02:09:18.652Z,1025.74
2017-12-23T02:10:39.679Z,1025.75
2017-12-23T02:11:18.683Z,1025.78
2017-12-23T02:12:18.700Z,1025.77
2017-12-23T02:13:18.717Z,1025.88
2017-12-23T02:14:18.747Z,1025.85
2017-12-23T02:15:18.895Z,1025.90
2017-12-23T02:16:39.880Z,1025.85
2017-12-23T02:17:18.808Z,1025.81
2017-12-23T02:18:18.826Z,1025.74
2017-12-23T02:19:18.854Z,1025.71
2017-12-23T02:20:18.868Z,1025.68
2017-12-23T02:21:18.889Z,1025.64
2017-12-23T02:22:39.939Z,1025.65
2017-12-23T02:23:18.927Z,1025.68
2017-12-23T02:24:18.951Z,1025.72
2017-12-23T02:25:18.984Z,1025.72
2017-12-23T02:26:18.998Z,1025.69
2017-12-23T02:27:19.016Z,1025.68
2017-12-23T02:28:40.063Z,1025.57
2017-12-23T02:29:19.049Z,1025.58
2017-12-23T02:30:19.140Z,1025.54
2017-12-23T02:31:19.107Z,1025.52
2017-12-23T02:32:19.118Z,1025.52
2017-12-23T02:33:19.135Z,1025.51
2017-12-23T02:34:40.174Z,1025.50
2017-12-23T02:35:19.177Z,1025.49
2017-12-23T02:36:19.202Z,1025.50
2017-12-23T02:37:19.228Z,1025.50
2017-12-23T02:38:19.238Z,1025.47
2017-12-23T02:39:19.279Z,1025.49
2017-12-23T02:40:40.304Z,1025.46
2017-12-23T02:41:19.396Z,1025.46
2017-12-23T02:42:19.325Z,1025.44
2017-12-23T02:43:19.352Z,1025.45
2017-12-23T02:44:19.377Z,1025.40
2017-12-23T02:45:19.397Z,1025.33
2017-12-23T02:46:40.418Z,1025.26
2017-12-23T02:47:19.434Z,1025.29
2017-12-23T02:48:19.451Z,1025.31
2017-12-23T02:49:19.484Z,1025.26
2017-12-23T02:50:19.485Z,1025.27
2017-12-23T02:51:19.513Z,1025.32
2017-12-23T02:52:40.546Z,1025.33
2017-12-23T02:53:19.554Z,1025.35
2017-12-23T02:54:19.590Z,1025.36
2017-12-23T02:55:19.598Z,1025.39
2017-12-23T02:56:19.617Z,1025.43
2017-12-23T02:57:19.640Z,1025.38
2017-12-23T02:58:40.675Z,1025.46
2017-12-23T02:59:19.680Z,1025.42
2017-12-23T03:00:19.695Z,1025.42
2017-12-23T03:01:19.725Z,1025.41
2017-12-23T03:02:19.744Z,1025.40
2017-12-23T03:03:19.763Z,1025.41
2017-12-23T03:04:40.846Z,1025.44
2017-12-23T03:05:19.805Z,1025.43
2017-12-23T03:06:19.828Z,1025.32
2017-12-23T03:07:19.846Z,1025.32
2017-12-23T03:08:19.877Z,1025.35
2017-12-23T03:09:19.880Z,1025.32
2017-12-23T03:10:40.926Z,1025.35
2017-12-23T03:11:19.930Z,1025.34
2017-12-23T03:12:19.946Z,1025.35
2017-12-23T03:13:19.981Z,1025.35
2017-12-23T03:14:19.999Z,1025.29
2017-12-23T03:15:20.005Z,1025.33
2017-12-23T03:16:41.045Z,1025.32
2017-12-23T03:17:20.052Z,1025.24
2017-12-23T03:18:20.075Z,1025.23
2017-12-23T03:19:20.101Z,1025.33
2017-12-23T03:20:20.110Z,1025.31
2017-12-23T03:21:20.134Z,1025.32
2017-12-23T03:22:41.182Z,1025.33
2017-12-23T03:23:20.175Z,1025.32
2017-12-23T03:24:20.210Z,1025.42
2017-12-23T03:25:20.220Z,1025.32
2017-12-23T03:26:20.236Z,1025.33
2017-12-23T03:27:20.254Z,1025.32
2017-12-23T03:28:41.490Z,1025.24
2017-12-23T03:29:20.293Z,1025.30
2017-12-23T03:30:20.326Z,1025.26
2017-12-23T03:31:20.351Z,1025.23
2017-12-23T03:32:20.357Z,1025.23
2017-12-23T03:33:20.374Z,1025.22
2017-12-23T03:34:41.427Z,1025.14
2017-12-23T03:35:20.423Z,1025.11
2017-12-23T03:36:20.447Z,1025.11
2017-12-23T03:37:20.465Z,1025.08
2017-12-23T03:38:20.475Z,1025.06
2017-12-23T03:39:20.503Z,1025.04
2017-12-23T03:40:41.540Z,1025.04
2017-12-23T03:41:20.541Z,1024.98
2017-12-23T03:42:20.564Z,1024.96
2017-12-23T03:43:20.580Z,1024.93
2017-12-23T03:44:20.598Z,1024.87
2017-12-23T03:45:20.625Z,1024.74
2017-12-23T03:46:41.670Z,1024.70
2017-12-23T03:47:20.668Z,1024.68
2017-12-23T03:48:20.687Z,1024.68
2017-12-23T03:49:20.717Z,1024.63
2017-12-23T03:50:20.730Z,1024.60
2017-12-23T03:51:20.744Z,1024.55
2017-12-23T03:52:41.783Z,1024.51
2017-12-23T03:53:20.796Z,1024.54
2017-12-23T03:54:20.805Z,1024.52
2017-12-23T03:55:20.835Z,1024.55
2017-12-23T03:56:20.853Z,1024.51
2017-12-23T03:57:20.872Z,1024.55
2017-12-23T03:58:41.904Z,1024.53
2017-12-23T03:59:20.903Z,1024.57
2017-12-23T04:00:20.927Z,1024.64
2017-12-23T04:01:20.940Z,1024.51
2017-12-23T04:02:20.979Z,1024.55
2017-12-23T04:03:20.994Z,1024.54
2017-12-23T04:04:42.023Z,1024.59
2017-12-23T04:05:21.036Z,1024.51
2017-12-23T04:06:21.069Z,1024.59
2017-12-23T04:07:21.082Z,1024.58
2017-12-23T04:08:21.773Z,1024.55
2017-12-23T04:09:21.121Z,1024.56
2017-12-23T04:10:42.157Z,1024.57
2017-12-23T04:11:21.153Z,1024.59
2017-12-23T04:12:21.168Z,1024.54
2017-12-23T04:13:21.195Z,1024.51
2017-12-23T04:14:21.220Z,1024.50
2017-12-23T04:15:21.237Z,1024.49
2017-12-23T04:16:42.269Z,1024.47
2017-12-23T04:17:21.331Z,1024.47
2017-12-23T04:18:21.296Z,1024.39
2017-12-23T04:19:21.349Z,1024.39
2017-12-23T04:20:21.339Z,1024.38
2017-12-23T04:21:21.354Z,1024.36
2017-12-23T04:22:42.385Z,1024.36
2017-12-23T04:23:21.398Z,1024.35
2017-12-23T04:24:21.408Z,1024.38
2017-12-23T04:25:21.442Z,1024.40
2017-12-23T04:26:21.463Z,1024.40
2017-12-23T04:27:21.483Z,1024.39
2017-12-23T04:28:42.529Z,1024.41
2017-12-23T04:29:21.517Z,1024.37
2017-12-23T04:30:21.544Z,1024.37
2017-12-23T04:31:21.559Z,1024.37
2017-12-23T04:32:21.595Z,1024.35
2017-12-23T04:33:21.606Z,1024.36
2017-12-23T04:34:42.640Z,1024.36
2017-12-23T04:35:21.651Z,1024.26
2017-12-23T04:36:21.679Z,1024.30
2017-12-23T04:37:21.683Z,1024.25
2017-12-23T04:38:21.704Z,1024.29
2017-12-23T04:39:21.720Z,1024.31
2017-12-23T04:40:42.757Z,1024.30
2017-12-23T04:41:21.768Z,1024.32
2017-12-23T04:42:21.794Z,1024.32
2017-12-23T04:43:21.810Z,1024.26
2017-12-23T04:44:21.827Z,1024.16
2017-12-23T04:45:21.841Z,1024.21
2017-12-23T04:46:42.889Z,1024.19
2017-12-23T04:47:21.883Z,1024.12
2017-12-23T04:48:21.912Z,1024.14
2017-12-23T04:49:21.924Z,1024.05
2017-12-23T04:50:21.946Z,1024.00
2017-12-23T04:51:21.965Z,1023.99
2017-12-23T04:52:43.000Z,1023.99
2017-12-23T04:53:22.007Z,1023.92
2017-12-23T04:54:22.029Z,1023.97
2017-12-23T04:55:22.046Z,1023.92
2017-12-23T04:56:22.074Z,1023.88
2017-12-23T04:57:22.083Z,1023.84
2017-12-23T04:58:43.119Z,1023.86
2017-12-23T04:59:22.130Z,1023.85
2017-12-23T05:00:22.149Z,1023.81
2017-12-23T05:01:22.182Z,1023.76
2017-12-23T05:02:22.190Z,1023.75
2017-12-23T05:03:22.245Z,1023.71
2017-12-23T05:04:43.249Z,1023.68
2017-12-23T05:05:22.246Z,1023.70
2017-12-23T05:06:22.274Z,1023.70
2017-12-23T05:07:22.283Z,1023.70
2017-12-23T05:08:22.315Z,1023.71
2017-12-23T05:09:22.333Z,1023.76
2017-12-23T05:10:43.369Z,1023.70
2017-12-23T05:11:22.377Z,1023.65
2017-12-23T05:12:22.391Z,1023.64
2017-12-23T05:13:22.410Z,1023.66
2017-12-23T05:14:22.438Z,1023.65
2017-12-23T05:15:22.452Z,1023.61
2017-12-23T05:16:43.495Z,1023.70
2017-12-23T05:17:22.492Z,1023.70
2017-12-23T05:18:22.530Z,1023.61
2017-12-23T05:19:22.531Z,1023.62
2017-12-23T05:20:22.558Z,1023.60
2017-12-23T05:21:22.578Z,1023.54
2017-12-23T05:22:43.626Z,1023.65
2017-12-23T05:23:22.614Z,1023.59
2017-12-23T05:24:22.637Z,1023.60
2017-12-23T05:25:22.656Z,1023.59
2017-12-23T05:26:22.697Z,1023.58
2017-12-23T05:27:22.700Z,1023.61
2017-12-23T05:28:43.733Z,1023.60
2017-12-23T05:29:22.743Z,1023.71
2017-12-23T05:30:22.755Z,1023.70
2017-12-23T05:31:22.788Z,1023.69
2017-12-23T05:32:22.804Z,1023.71
2017-12-23T05:33:22.823Z,1023.71
2017-12-23T05:34:43.862Z,1023.75
2017-12-23T05:35:22.876Z,1023.68
2017-12-23T05:36:22.880Z,1023.62
2017-12-23T05:37:22.904Z,1023.67
2017-12-23T05:38:22.946Z,1023.64
2017-12-23T05:39:22.947Z,1023.68
2017-12-23T05:40:43.981Z,1023.73
2017-12-23T05:41:22.997Z,1023.76
2017-12-23T05:42:23.012Z,1023.65
2017-12-23T05:43:23.044Z,1023.66
2017-12-23T05:44:23.055Z,1023.69
2017-12-23T05:45:23.063Z,1023.75
2017-12-23T05:46:44.122Z,1023.67
2017-12-23T05:47:23.126Z,1023.64
2017-12-23T05:48:23.145Z,1023.64
2017-12-23T05:49:23.151Z,1023.55
2017-12-23T05:50:23.168Z,1023.60
2017-12-23T05:51:23.199Z,1023.54
2017-12-23T05:52:44.215Z,1023.50
2017-12-23T05:53:23.227Z,1023.50
2017-12-23T05:54:23.249Z,1023.42
2017-12-23T05:55:23.276Z,1023.43
2017-12-23T05:56:23.284Z,1023.38
2017-12-23T05:57:23.332Z,1023.37
2017-12-23T05:58:44.346Z,1023.30
2017-12-23T05:59:23.360Z,1023.32
2017-12-23T06:00:23.364Z,1023.35
2017-12-23T06:01:23.411Z,1023.28
2017-12-23T06:02:23.415Z,1023.33
2017-12-23T06:03:23.434Z,1023.29
2017-12-23T06:04:44.470Z,1023.25
2017-12-23T06:05:23.483Z,1023.23
2017-12-23T06:06:23.495Z,1023.24
2017-12-23T06:07:23.510Z,1023.25
2017-12-23T06:08:23.567Z,1023.29
2017-12-23T06:09:23.546Z,1023.28
2017-12-23T06:10:44.584Z,1023.27
2017-12-23T06:11:23.589Z,1023.25
2017-12-23T06:12:23.613Z,1023.21
2017-12-23T06:13:23.639Z,1023.05
2017-12-23T06:14:23.669Z,1023.03
2017-12-23T06:15:23.677Z,1023.00
2017-12-23T06:16:44.721Z,1023.00
2017-12-23T06:17:23.707Z,1023.00
2017-12-23T06:18:23.747Z,1022.93
2017-12-23T06:19:23.749Z,1022.85
2017-12-23T06:20:23.767Z,1022.90
2017-12-23T06:21:23.797Z,1022.83
2017-12-23T06:22:44.837Z,1022.81
2017-12-23T06:23:23.850Z,1022.77
2017-12-23T06:24:23.850Z,1022.77
2017-12-23T06:25:23.865Z,1022.75
2017-12-23T06:26:23.900Z,1022.74
2017-12-23T06:27:23.916Z,1022.69
2017-12-23T06:28:44.946Z,1022.74
2017-12-23T06:29:23.955Z,1022.83
2017-12-23T06:30:23.977Z,1022.82
2017-12-23T06:31:23.998Z,1022.80
2017-12-23T06:32:24.013Z,1022.77
2017-12-23T06:33:24.034Z,1022.81
2017-12-23T06:34:45.078Z,1022.78
2017-12-23T06:35:24.096Z,1022.69
2017-12-23T06:36:24.151Z,1022.69
2017-12-23T06:37:24.209Z,1022.64
2017-12-23T06:38:24.156Z,1022.58
2017-12-23T06:39:24.377Z,1022.63
2017-12-23T06:40:45.196Z,1022.59
2017-12-23T06:41:24.371Z,1022.60
2017-12-23T06:42:24.224Z,1022.57
2017-12-23T06:43:24.395Z,1022.56
2017-12-23T06:44:24.486Z,1022.50
2017-12-23T06:45:24.541Z,1022.52
2017-12-23T06:46:45.328Z,1022.51
2017-12-23T06:47:24.327Z,1022.43
2017-12-23T06:48:24.360Z,1022.40
2017-12-23T06:49:24.366Z,1022.45
2017-12-23T06:50:24.404Z,1022.44
2017-12-23T06:51:24.400Z,1022.45
2017-12-23T06:52:45.438Z,1022.42
2017-12-23T06:53:24.444Z,1022.37
2017-12-23T06:54:24.470Z,1022.42
2017-12-23T06:55:24.483Z,1022.43
2017-12-23T06:56:24.501Z,1022.42
2017-12-23T06:57:24.541Z,1022.44
2017-12-23T06:58:45.565Z,1022.39
2017-12-23T06:59:24.566Z,1022.39
2017-12-23T07:00:24.587Z,1022.40
2017-12-23T07:01:24.611Z,1022.36
2017-12-23T07:02:24.628Z,1022.37
2017-12-23T07:03:24.639Z,1022.43
2017-12-23T07:04:45.687Z,1022.44
2017-12-23T07:05:24.697Z,1022.27
2017-12-23T07:06:24.712Z,1022.40
2017-12-23T07:07:24.746Z,1022.26
2017-12-23T07:08:24.755Z,1022.25
2017-12-23T07:09:24.768Z,1022.24
2017-12-23T07:10:45.804Z,1022.23
2017-12-23T07:11:24.820Z,1022.16
2017-12-23T07:12:24.826Z,1022.12
2017-12-23T07:13:24.855Z,1022.15
2017-12-23T07:14:24.867Z,1022.22
2017-12-23T07:15:24.902Z,1022.22
2017-12-23T07:16:45.942Z,1022.29
2017-12-23T07:17:24.936Z,1022.23
2017-12-23T07:18:24.959Z,1022.24
2017-12-23T07:19:25.021Z,1022.16
2017-12-23T07:20:25.005Z,1022.18
2017-12-23T07:21:25.015Z,1022.23
2017-12-23T07:22:46.054Z,1022.19
2017-12-23T07:23:25.059Z,1022.15
2017-12-23T07:24:25.102Z,1022.12
2017-12-23T07:25:25.116Z,1022.13
2017-12-23T07:26:25.125Z,1022.15
2017-12-23T07:27:25.139Z,1022.01
2017-12-23T07:28:46.186Z,1021.99
2017-12-23T07:29:25.174Z,1022.00
2017-12-23T07:30:25.195Z,1021.98
2017-12-23T07:31:25.222Z,1022.00
2017-12-23T07:32:25.250Z,1022.02
2017-12-23T07:33:25.260Z,1022.04
2017-12-23T07:34:46.296Z,1022.02
2017-12-23T07:35:25.298Z,1021.98
2017-12-23T07:36:25.326Z,1022.02
2017-12-23T07:37:25.363Z,1022.03
2017-12-23T07:38:25.365Z,1021.99
2017-12-23T07:39:25.415Z,1022.01
2017-12-23T07:40:46.417Z,1022.01
2017-12-23T07:41:25.420Z,1022.00
2017-12-23T07:42:25.441Z,1021.96
2017-12-23T07:43:25.473Z,1021.96
2017-12-23T07:44:25.486Z,1021.98
2017-12-23T07:45:25.517Z,1021.95
2017-12-23T07:46:46.539Z,1021.89
2017-12-23T07:47:25.554Z,1021.86
2017-12-23T07:48:25.616Z,1021.83
2017-12-23T07:49:25.591Z,1021.83
2017-12-23T07:50:26.257Z,1021.80
2017-12-23T07:51:25.631Z,1021.79
2017-12-23T07:52:46.692Z,1021.75
2017-12-23T07:53:25.678Z,1021.81
2017-12-23T07:54:25.700Z,1021.81
2017-12-23T07:55:25.711Z,1021.83
2017-12-23T07:56:25.732Z,1021.80
2017-12-23T07:57:25.761Z,1021.78
2017-12-23T07:58:46.789Z,1021.76
2017-12-23T07:59:25.803Z,1021.73
2017-12-23T08:00:25.814Z,1021.71
2017-12-23T08:01:25.862Z,1021.79
2017-12-23T08:02:25.858Z,1021.73
2017-12-23T08:03:25.921Z,1021.71
2017-12-23T08:04:46.908Z,1021.68
2017-12-23T08:05:25.954Z,1021.68
2017-12-23T08:06:25.939Z,1021.68
2017-12-23T08:07:25.957Z,1021.60
2017-12-23T08:08:25.994Z,1021.56
2017-12-23T08:09:26.001Z,1021.56
2017-12-23T08:10:47.039Z,1021.51
2017-12-23T08:11:26.056Z,1021.46
2017-12-23T08:12:26.066Z,1021.52
2017-12-23T08:13:26.103Z,1021.48
2017-12-23T08:14:26.111Z,1021.52
2017-12-23T08:15:26.146Z,1021.54
2017-12-23T08:16:47.160Z,1021.57
2017-12-23T08:17:26.166Z,1021.48
2017-12-23T08:18:26.202Z,1021.56
2017-12-23T08:19:26.214Z,1021.53
2017-12-23T08:20:26.231Z,1021.51
2017-12-23T08:21:26.265Z,1021.44
2017-12-23T08:22:47.300Z,1021.44
2017-12-23T08:23:26.302Z,1021.48
2017-12-23T08:24:26.310Z,1021.47
2017-12-23T08:25:26.341Z,1021.50
2017-12-23T08:26:26.355Z,1021.47
2017-12-23T08:27:26.380Z,1021.48
2017-12-23T08:28:47.444Z,1021.44
2017-12-23T08:29:26.423Z,1021.46
2017-12-23T08:30:26.435Z,1021.43
2017-12-23T08:31:26.464Z,1021.48
2017-12-23T08:32:26.485Z,1021.47
2017-12-23T08:33:26.515Z,1021.45
2017-12-23T08:34:47.532Z,1021.48
2017-12-23T08:35:26.548Z,1021.54
2017-12-23T08:36:26.560Z,1021.52
2017-12-23T08:37:26.590Z,1021.46
2017-12-23T08:38:26.605Z,1021.40
2017-12-23T08:39:26.637Z,1021.44
2017-12-23T08:40:47.673Z,1021.43
2017-12-23T08:41:26.682Z,1021.44
2017-12-23T08:42:26.700Z,1021.43
2017-12-23T08:43:26.712Z,1021.39
2017-12-23T08:44:26.736Z,1021.38
2017-12-23T08:45:26.755Z,1021.38
2017-12-23T08:46:47.792Z,1021.41
2017-12-23T08:47:26.812Z,1021.38
2017-12-23T08:48:26.822Z,1021.34
2017-12-23T08:49:26.845Z,1021.32
2017-12-23T08:50:26.857Z,1021.27
2017-12-23T08:51:26.883Z,1021.26
2017-12-23T08:52:47.929Z,1021.24
2017-12-23T08:53:26.924Z,1021.17
2017-12-23T08:54:26.951Z,1021.09
2017-12-23T08:55:26.964Z,1021.19
2017-12-23T08:56:26.993Z,1021.21
2017-12-23T08:57:27.013Z,1021.24
2017-12-23T08:58:48.041Z,1021.27
2017-12-23T08:59:27.053Z,1021.32
2017-12-23T09:00:27.063Z,1021.31
2017-12-23T09:01:27.104Z,1021.34
2017-12-23T09:02:27.137Z,1021.30
2017-12-23T09:03:27.129Z,1021.34
2017-12-23T09:04:48.171Z,1021.36
2017-12-23T09:05:27.393Z,1021.41
2017-12-23T09:06:27.221Z,1021.41
2017-12-23T09:07:27.210Z,1021.55
2017-12-23T09:08:27.246Z,1021.56
2017-12-23T09:09:27.258Z,1021.52
2017-12-23T09:10:48.294Z,1021.57
2017-12-23T09:11:27.310Z,1021.61
2017-12-23T09:12:27.325Z,1021.61
2017-12-23T09:13:27.395Z,1021.62
2017-12-23T09:14:27.363Z,1021.67
2017-12-23T09:15:27.406Z,1021.70
2017-12-23T09:16:48.422Z,1021.70
2017-12-23T09:17:27.445Z,1021.69
2017-12-23T09:18:27.453Z,1021.70
2017-12-23T09:19:27.473Z,1021.76
2017-12-23T09:20:27.489Z,1021.75
2017-12-23T09:21:27.516Z,1021.80
2017-12-23T09:22:48.558Z,1021.82
2017-12-23T09:23:27.556Z,1021.85
2017-12-23T09:24:27.573Z,1021.78
2017-12-23T09:25:27.599Z,1021.77
2017-12-23T09:26:27.642Z,1021.79
2017-12-23T09:27:27.705Z,1021.81
2017-12-23T09:28:48.676Z,1021.89
2017-12-23T09:29:27.686Z,1021.84
2017-12-23T09:30:27.713Z,1021.88
2017-12-23T09:31:27.749Z,1021.86
2017-12-23T09:32:27.758Z,1021.79
2017-12-23T09:33:27.791Z,1021.77
2017-12-23T09:34:48.818Z,1021.83
2017-12-23T09:35:27.808Z,1021.78
2017-12-23T09:36:27.824Z,1021.72
2017-12-23T09:37:27.847Z,1021.74
2017-12-23T09:38:27.876Z,1021.66
2017-12-23T09:39:27.895Z,1021.73
2017-12-23T09:40:48.939Z,1021.69
2017-12-23T09:41:27.944Z,1021.69
2017-12-23T09:42:27.968Z,1021.67
2017-12-23T09:43:27.981Z,1021.61
2017-12-23T09:44:28.003Z,1021.55
2017-12-23T09:45:28.033Z,1021.57
2017-12-23T09:46:49.063Z,1021.55
2017-12-23T09:47:28.085Z,1021.47
2017-12-23T09:48:28.093Z,1021.43
2017-12-23T09:49:28.116Z,1021.41
2017-12-23T09:50:28.136Z,1021.37
2017-12-23T09:51:28.148Z,1021.36
2017-12-23T09:52:49.185Z,1021.36
2017-12-23T09:53:28.201Z,1021.35
2017-12-23T09:54:28.231Z,1021.27
2017-12-23T09:55:28.243Z,1021.28
2017-12-23T09:56:28.267Z,1021.18
2017-12-23T09:57:28.285Z,1021.26
2017-12-23T09:58:49.335Z,1021.18
2017-12-23T09:59:28.335Z,1021.30
2017-12-23T10:00:28.350Z,1021.26
2017-12-23T10:01:28.383Z,1021.26
2017-12-23T10:02:28.384Z,1021.33
2017-12-23T10:03:28.413Z,1021.25
2017-12-23T10:04:50.288Z,1021.30
2017-12-23T10:05:28.597Z,1021.34
2017-12-23T10:06:28.484Z,1021.32
2017-12-23T10:07:28.489Z,1021.32
2017-12-23T10:08:28.510Z,1021.30
2017-12-23T10:09:28.538Z,1021.15
2017-12-23T10:10:49.578Z,1021.05
2017-12-23T10:11:28.599Z,1021.01
2017-12-23T10:12:28.607Z,1021.06
2017-12-23T10:13:28.619Z,1021.06
2017-12-23T10:14:28.645Z,1021.01
2017-12-23T10:15:28.670Z,1020.96
2017-12-23T10:16:49.695Z,1021.03
2017-12-23T10:17:28.701Z,1021.09
2017-12-23T10:18:28.730Z,1021.04
2017-12-23T10:19:28.748Z,1020.97
2017-12-23T10:20:28.783Z,1021.04
2017-12-23T10:21:28.801Z,1021.03
2017-12-23T10:22:49.849Z,1021.07
2017-12-23T10:23:28.848Z,1021.06
2017-12-23T10:24:28.864Z,1021.04
2017-12-23T10:25:28.895Z,1021.08
2017-12-23T10:26:28.905Z,1021.07
2017-12-23T10:27:28.954Z,1021.06
2017-12-23T10:28:49.957Z,1020.97
2017-12-23T10:29:28.962Z,1021.02
2017-12-23T10:30:28.994Z,1020.93
2017-12-23T10:31:29.008Z,1020.97
2017-12-23T10:32:29.032Z,1020.92
2017-12-23T10:33:29.062Z,1020.97
2017-12-23T10:34:50.093Z,1020.93
2017-12-23T10:35:29.098Z,1020.87
2017-12-23T10:36:29.116Z,1020.75
2017-12-23T10:37:29.140Z,1020.75
2017-12-23T10:38:29.169Z,1020.80
2017-12-23T10:39:29.187Z,1020.76
2017-12-23T10:40:50.231Z,1020.79
2017-12-23T10:41:29.224Z,1020.72
2017-12-23T10:42:29.262Z,1020.75
2017-12-23T10:43:29.265Z,1020.69
2017-12-23T10:44:29.287Z,1020.73
2017-12-23T10:45:29.310Z,1020.76
2017-12-23T10:46:50.344Z,1020.79
2017-12-23T10:47:29.371Z,1020.74
2017-12-23T10:48:29.371Z,1020.76
2017-12-23T10:49:29.409Z,1020.67
2017-12-23T10:50:29.420Z,1020.59
2017-12-23T10:51:29.562Z,1020.60
2017-12-23T10:52:50.477Z,1020.68
2017-12-23T10:53:29.506Z,1020.53
2017-12-23T10:54:29.505Z,1020.70
2017-12-23T10:55:29.534Z,1020.72
2017-12-23T10:56:29.558Z,1020.67
2017-12-23T10:57:29.569Z,1020.65
2017-12-23T10:58:50.615Z,1020.68
2017-12-23T10:59:29.620Z,1020.66
2017-12-23T11:00:29.637Z,1020.61
2017-12-23T11:01:29.657Z,1020.54
2017-12-23T11:02:29.703Z,1020.54
2017-12-23T11:03:29.704Z,1020.46
2017-12-23T11:04:50.743Z,1020.45
2017-12-23T11:05:29.737Z,1020.38
2017-12-23T11:06:29.768Z,1020.39
2017-12-23T11:07:29.791Z,1020.32
2017-12-23T11:08:29.804Z,1020.42
2017-12-23T11:09:29.831Z,1020.38
2017-12-23T11:10:50.865Z,1020.37
2017-12-23T11:11:29.874Z,1020.42
2017-12-23T11:12:29.891Z,1020.34
2017-12-23T11:13:29.918Z,1020.34
2017-12-23T11:14:29.942Z,1020.31
2017-12-23T11:15:30.004Z,1020.26
2017-12-23T11:16:51.006Z,1020.24
2017-12-23T11:17:30.020Z,1020.28
2017-12-23T11:18:30.043Z,1020.26
2017-12-23T11:19:30.063Z,1020.19
2017-12-23T11:20:30.074Z,1020.07
2017-12-23T11:21:30.083Z,1020.04
2017-12-23T11:22:51.155Z,1019.92
2017-12-23T11:23:30.131Z,1019.91
2017-12-23T11:24:30.157Z,1019.92
2017-12-23T11:25:30.181Z,1019.83
2017-12-23T11:26:30.206Z,1019.75
2017-12-23T11:27:30.228Z,1019.73
2017-12-23T11:28:51.276Z,1019.70
2017-12-23T11:29:30.264Z,1019.74
2017-12-23T11:30:30.306Z,1019.77
2017-12-23T11:31:30.315Z,1019.68
2017-12-23T11:32:30.334Z,1019.61
2017-12-23T11:33:30.345Z,1019.68
2017-12-23T11:34:51.396Z,1019.66
2017-12-23T11:35:30.394Z,1019.56
2017-12-23T11:36:30.434Z,1019.61
2017-12-23T11:37:30.447Z,1019.58
2017-12-23T11:38:30.478Z,1019.53
2017-12-23T11:39:30.483Z,1019.55
2017-12-23T11:40:52.293Z,1019.55
2017-12-23T11:41:30.528Z,1019.49
2017-12-23T11:42:30.555Z,1019.47
2017-12-23T11:43:30.585Z,1019.44
2017-12-23T11:44:30.591Z,1019.47
2017-12-23T11:45:30.623Z,1019.39
2017-12-23T11:46:51.650Z,1019.47
2017-12-23T11:47:30.665Z,1019.44
2017-12-23T11:48:30.692Z,1019.39
2017-12-23T11:49:30.701Z,1019.45
2017-12-23T11:50:30.723Z,1019.53
2017-12-23T11:51:30.747Z,1019.60
2017-12-23T11:52:51.805Z,1019.57
2017-12-23T11:53:30.788Z,1019.50
2017-12-23T11:54:30.823Z,1019.40
2017-12-23T11:55:30.844Z,1019.37
2017-12-23T11:56:30.855Z,1019.34
2017-12-23T11:57:30.891Z,1019.22
2017-12-23T11:58:51.920Z,1019.22
2017-12-23T11:59:30.930Z,1019.15
2017-12-23T12:00:30.945Z,1019.15
2017-12-23T12:01:30.969Z,1019.20
2017-12-23T12:02:30.987Z,1019.13
2017-12-23T12:03:31.013Z,1019.13
2017-12-23T12:04:52.049Z,1019.11
2017-12-23T12:05:31.054Z,1019.04